sensor_id;sensor_type;location;lat;lon;timestamp;P1;durP1;ratioP1;P2;durP2;ratioP2
17347;SDS011;8791;50.876;4.342;2023-04-25T00:01:12;18.50;;;4.07;;
17347;SDS011;8791;50.876;4.342;2023-04-25T00:03:39;19.10;;;4.73;;
17347;SDS011;8791;50.876;4.342;2023-04-25T00:06:08;22.40;;;4.63;;
17347;SDS011;8791;50.876;4.342;2023-04-25T00:08:35;23.80;;;4.60;;
17347;SDS011;8791;50.876;4.342;2023-04-25T00:11:02;22.67;;;4.70;;
17347;SDS011;8791;50.876;4.342;2023-04-25T00:13:29;17.77;;;4.50;;
17347;SDS011;8791;50.876;4.342;2023-04-25T00:15:56;17.83;;;4.17;;
17347;SDS011;8791;50.876;4.342;2023-04-25T00:18:23;20.37;;;4.70;;
17347;SDS011;8791;50.876;4.342;2023-04-25T00:20:50;16.27;;;3.93;;
17347;SDS011;8791;50.876;4.342;2023-04-25T00:23:19;17.50;;;4.23;;
17347;SDS011;8791;50.876;4.342;2023-04-25T00:25:47;18.47;;;4.17;;
17347;SDS011;8791;50.876;4.342;2023-04-25T00:28:15;18.63;;;4.90;;
17347;SDS011;8791;50.876;4.342;2023-04-25T00:30:43;21.33;;;4.07;;
17347;SDS011;8791;50.876;4.342;2023-04-25T00:33:10;26.30;;;5.73;;
17347;SDS011;8791;50.876;4.342;2023-04-25T00:35:37;20.27;;;4.27;;
17347;SDS011;8791;50.876;4.342;2023-04-25T00:38:04;17.23;;;4.60;;
17347;SDS011;8791;50.876;4.342;2023-04-25T00:40:33;13.87;;;3.97;;
17347;SDS011;8791;50.876;4.342;2023-04-25T00:43:00;20.00;;;4.23;;
17347;SDS011;8791;50.876;4.342;2023-04-25T00:45:27;17.73;;;4.17;;
17347;SDS011;8791;50.876;4.342;2023-04-25T00:47:55;17.07;;;4.30;;
17347;SDS011;8791;50.876;4.342;2023-04-25T00:50:23;18.67;;;4.10;;
17347;SDS011;8791;50.876;4.342;2023-04-25T00:52:50;23.77;;;4.80;;
17347;SDS011;8791;50.876;4.342;2023-04-25T00:55:18;20.53;;;4.30;;
17347;SDS011;8791;50.876;4.342;2023-04-25T00:57:47;24.03;;;4.70;;
17347;SDS011;8791;50.876;4.342;2023-04-25T01:00:14;15.43;;;5.20;;
17347;SDS011;8791;50.876;4.342;2023-04-25T01:02:41;20.13;;;4.70;;
17347;SDS011;8791;50.876;4.342;2023-04-25T01:05:09;27.40;;;5.73;;
17347;SDS011;8791;50.876;4.342;2023-04-25T01:07:37;25.07;;;4.80;;
17347;SDS011;8791;50.876;4.342;2023-04-25T01:10:04;28.97;;;5.23;;
17347;SDS011;8791;50.876;4.342;2023-04-25T01:12:32;18.53;;;5.10;;
17347;SDS011;8791;50.876;4.342;2023-04-25T01:15:01;20.27;;;4.70;;
17347;SDS011;8791;50.876;4.342;2023-04-25T01:17:29;23.47;;;5.43;;
17347;SDS011;8791;50.876;4.342;2023-04-25T01:19:56;18.03;;;4.57;;
17347;SDS011;8791;50.876;4.342;2023-04-25T01:22:25;20.60;;;4.47;;
17347;SDS011;8791;50.876;4.342;2023-04-25T01:24:52;18.20;;;4.90;;
17347;SDS011;8791;50.876;4.342;2023-04-25T01:27:19;22.80;;;4.47;;
17347;SDS011;8791;50.876;4.342;2023-04-25T01:29:47;26.10;;;4.30;;
17347;SDS011;8791;50.876;4.342;2023-04-25T01:32:15;18.80;;;4.47;;
17347;SDS011;8791;50.876;4.342;2023-04-25T01:34:43;19.20;;;5.17;;
17347;SDS011;8791;50.876;4.342;2023-04-25T01:37:10;20.00;;;5.10;;
17347;SDS011;8791;50.876;4.342;2023-04-25T01:39:38;23.30;;;4.20;;
17347;SDS011;8791;50.876;4.342;2023-04-25T01:42:05;26.10;;;4.53;;
17347;SDS011;8791;50.876;4.342;2023-04-25T01:44:32;18.50;;;4.90;;
17347;SDS011;8791;50.876;4.342;2023-04-25T01:46:59;19.57;;;4.27;;
17347;SDS011;8791;50.876;4.342;2023-04-25T01:49:26;30.20;;;4.87;;
17347;SDS011;8791;50.876;4.342;2023-04-25T01:51:53;17.40;;;5.07;;
17347;SDS011;8791;50.876;4.342;2023-04-25T01:54:20;19.80;;;4.90;;
17347;SDS011;8791;50.876;4.342;2023-04-25T01:56:51;24.40;;;5.20;;
17347;SDS011;8791;50.876;4.342;2023-04-25T01:59:18;18.43;;;5.47;;
17347;SDS011;8791;50.876;4.342;2023-04-25T02:01:46;18.47;;;5.07;;
17347;SDS011;8791;50.876;4.342;2023-04-25T02:04:13;26.00;;;5.73;;
17347;SDS011;8791;50.876;4.342;2023-04-25T02:06:41;24.33;;;5.60;;
17347;SDS011;8791;50.876;4.342;2023-04-25T02:09:08;24.47;;;5.07;;
17347;SDS011;8791;50.876;4.342;2023-04-25T02:11:35;30.10;;;4.97;;
17347;SDS011;8791;50.876;4.342;2023-04-25T02:14:03;21.13;;;5.27;;
17347;SDS011;8791;50.876;4.342;2023-04-25T02:16:30;33.97;;;5.67;;
17347;SDS011;8791;50.876;4.342;2023-04-25T02:18:57;25.50;;;5.07;;
17347;SDS011;8791;50.876;4.342;2023-04-25T02:21:24;28.00;;;5.17;;
17347;SDS011;8791;50.876;4.342;2023-04-25T02:23:51;22.13;;;5.20;;
17347;SDS011;8791;50.876;4.342;2023-04-25T02:26:19;21.07;;;4.67;;
17347;SDS011;8791;50.876;4.342;2023-04-25T02:28:48;25.13;;;5.80;;
17347;SDS011;8791;50.876;4.342;2023-04-25T02:31:18;19.27;;;5.43;;
17347;SDS011;8791;50.876;4.342;2023-04-25T02:33:45;22.67;;;5.00;;
17347;SDS011;8791;50.876;4.342;2023-04-25T02:36:13;23.87;;;5.20;;
17347;SDS011;8791;50.876;4.342;2023-04-25T02:38:40;21.63;;;4.77;;
17347;SDS011;8791;50.876;4.342;2023-04-25T02:41:07;21.40;;;6.00;;
17347;SDS011;8791;50.876;4.342;2023-04-25T02:43:34;25.27;;;5.47;;
17347;SDS011;8791;50.876;4.342;2023-04-25T02:46:01;19.57;;;5.07;;
17347;SDS011;8791;50.876;4.342;2023-04-25T02:48:30;23.43;;;5.60;;
17347;SDS011;8791;50.876;4.342;2023-04-25T02:50:57;17.63;;;5.37;;
17347;SDS011;8791;50.876;4.342;2023-04-25T02:53:23;26.50;;;5.50;;
17347;SDS011;8791;50.876;4.342;2023-04-25T02:55:50;35.50;;;5.57;;
17347;SDS011;8791;50.876;4.342;2023-04-25T02:58:18;18.47;;;5.43;;
17347;SDS011;8791;50.876;4.342;2023-04-25T03:00:44;22.37;;;5.07;;
17347;SDS011;8791;50.876;4.342;2023-04-25T03:03:11;25.97;;;5.10;;
17347;SDS011;8791;50.876;4.342;2023-04-25T03:05:41;24.50;;;5.33;;
17347;SDS011;8791;50.876;4.342;2023-04-25T03:08:08;20.43;;;5.57;;
17347;SDS011;8791;50.876;4.342;2023-04-25T03:10:35;32.57;;;5.57;;
17347;SDS011;8791;50.876;4.342;2023-04-25T03:13:02;27.17;;;4.87;;
17347;SDS011;8791;50.876;4.342;2023-04-25T03:15:29;26.03;;;4.60;;
17347;SDS011;8791;50.876;4.342;2023-04-25T03:17:56;19.33;;;5.53;;
17347;SDS011;8791;50.876;4.342;2023-04-25T03:20:23;24.90;;;4.90;;
17347;SDS011;8791;50.876;4.342;2023-04-25T03:22:52;32.20;;;5.27;;
17347;SDS011;8791;50.876;4.342;2023-04-25T03:25:19;24.33;;;5.23;;
17347;SDS011;8791;50.876;4.342;2023-04-25T03:27:46;16.83;;;4.37;;
17347;SDS011;8791;50.876;4.342;2023-04-25T03:30:13;24.20;;;5.30;;
17347;SDS011;8791;50.876;4.342;2023-04-25T03:32:40;21.03;;;4.50;;
17347;SDS011;8791;50.876;4.342;2023-04-25T03:35:07;25.03;;;5.57;;
17347;SDS011;8791;50.876;4.342;2023-04-25T03:37:34;16.93;;;4.00;;
17347;SDS011;8791;50.876;4.342;2023-04-25T03:40:03;21.23;;;4.67;;
17347;SDS011;8791;50.876;4.342;2023-04-25T03:42:31;17.03;;;4.33;;
17347;SDS011;8791;50.876;4.342;2023-04-25T03:44:58;24.50;;;5.10;;
17347;SDS011;8791;50.876;4.342;2023-04-25T03:47:25;18.57;;;4.40;;
17347;SDS011;8791;50.876;4.342;2023-04-25T03:49:52;20.97;;;5.40;;
17347;SDS011;8791;50.876;4.342;2023-04-25T03:52:19;23.30;;;4.53;;
17347;SDS011;8791;50.876;4.342;2023-04-25T03:54:46;22.20;;;4.67;;
17347;SDS011;8791;50.876;4.342;2023-04-25T03:57:15;28.63;;;4.30;;
17347;SDS011;8791;50.876;4.342;2023-04-25T03:59:42;23.20;;;4.60;;
17347;SDS011;8791;50.876;4.342;2023-04-25T04:02:09;13.17;;;3.83;;
17347;SDS011;8791;50.876;4.342;2023-04-25T04:04:36;21.57;;;4.97;;
17347;SDS011;8791;50.876;4.342;2023-04-25T04:07:03;19.53;;;4.17;;
17347;SDS011;8791;50.876;4.342;2023-04-25T04:09:30;20.27;;;4.30;;
17347;SDS011;8791;50.876;4.342;2023-04-25T04:11:59;15.80;;;3.83;;
17347;SDS011;8791;50.876;4.342;2023-04-25T04:14:27;13.87;;;3.97;;
17347;SDS011;8791;50.876;4.342;2023-04-25T04:16:55;19.87;;;4.47;;
17347;SDS011;8791;50.876;4.342;2023-04-25T04:19:22;19.03;;;3.63;;
17347;SDS011;8791;50.876;4.342;2023-04-25T04:21:49;28.40;;;4.40;;
17347;SDS011;8791;50.876;4.342;2023-04-25T04:24:16;19.10;;;4.30;;
17347;SDS011;8791;50.876;4.342;2023-04-25T04:26:43;11.97;;;3.63;;
17347;SDS011;8791;50.876;4.342;2023-04-25T04:29:11;19.70;;;4.97;;
17347;SDS011;8791;50.876;4.342;2023-04-25T04:31:47;20.97;;;3.93;;
17347;SDS011;8791;50.876;4.342;2023-04-25T04:34:15;15.90;;;3.63;;
17347;SDS011;8791;50.876;4.342;2023-04-25T04:36:43;27.20;;;4.17;;
17347;SDS011;8791;50.876;4.342;2023-04-25T04:39:11;21.73;;;3.60;;
17347;SDS011;8791;50.876;4.342;2023-04-25T04:41:38;26.33;;;4.73;;
17347;SDS011;8791;50.876;4.342;2023-04-25T04:44:05;17.00;;;4.47;;
17347;SDS011;8791;50.876;4.342;2023-04-25T04:46:33;19.33;;;4.77;;
17347;SDS011;8791;50.876;4.342;2023-04-25T04:49:05;19.87;;;5.17;;
17347;SDS011;8791;50.876;4.342;2023-04-25T04:51:32;21.53;;;4.67;;
17347;SDS011;8791;50.876;4.342;2023-04-25T04:53:59;14.97;;;4.47;;
17347;SDS011;8791;50.876;4.342;2023-04-25T04:56:27;21.80;;;5.33;;
17347;SDS011;8791;50.876;4.342;2023-04-25T04:58:56;15.37;;;4.20;;
17347;SDS011;8791;50.876;4.342;2023-04-25T05:01:23;12.30;;;4.00;;
17347;SDS011;8791;50.876;4.342;2023-04-25T05:03:51;18.87;;;3.90;;
17347;SDS011;8791;50.876;4.342;2023-04-25T05:06:22;12.83;;;4.60;;
17347;SDS011;8791;50.876;4.342;2023-04-25T05:08:49;21.43;;;4.27;;
17347;SDS011;8791;50.876;4.342;2023-04-25T05:11:17;19.50;;;4.50;;
17347;SDS011;8791;50.876;4.342;2023-04-25T05:13:46;12.43;;;3.37;;
17347;SDS011;8791;50.876;4.342;2023-04-25T05:16:13;12.10;;;3.97;;
17347;SDS011;8791;50.876;4.342;2023-04-25T05:18:40;12.70;;;4.10;;
17347;SDS011;8791;50.876;4.342;2023-04-25T05:21:08;22.17;;;4.63;;
17347;SDS011;8791;50.876;4.342;2023-04-25T05:23:36;19.20;;;4.37;;
17347;SDS011;8791;50.876;4.342;2023-04-25T05:26:03;16.63;;;4.73;;
17347;SDS011;8791;50.876;4.342;2023-04-25T05:28:30;13.10;;;4.47;;
17347;SDS011;8791;50.876;4.342;2023-04-25T05:30:57;20.57;;;4.80;;
17347;SDS011;8791;50.876;4.342;2023-04-25T05:33:25;19.00;;;5.13;;
17347;SDS011;8791;50.876;4.342;2023-04-25T05:35:52;16.33;;;5.37;;
17347;SDS011;8791;50.876;4.342;2023-04-25T05:38:19;13.63;;;4.77;;
17347;SDS011;8791;50.876;4.342;2023-04-25T05:40:47;16.33;;;4.60;;
17347;SDS011;8791;50.876;4.342;2023-04-25T05:43:14;29.03;;;12.17;;
17347;SDS011;8791;50.876;4.342;2023-04-25T05:45:42;18.63;;;4.80;;
17347;SDS011;8791;50.876;4.342;2023-04-25T05:48:09;20.73;;;6.30;;
17347;SDS011;8791;50.876;4.342;2023-04-25T05:50:36;13.90;;;5.10;;
17347;SDS011;8791;50.876;4.342;2023-04-25T05:53:03;24.03;;;5.57;;
17347;SDS011;8791;50.876;4.342;2023-04-25T05:55:30;21.63;;;5.10;;
17347;SDS011;8791;50.876;4.342;2023-04-25T05:57:59;15.10;;;5.53;;
17347;SDS011;8791;50.876;4.342;2023-04-25T06:00:26;15.50;;;4.47;;
17347;SDS011;8791;50.876;4.342;2023-04-25T06:02:53;14.87;;;5.00;;
17347;SDS011;8791;50.876;4.342;2023-04-25T06:05:20;13.43;;;3.90;;
17347;SDS011;8791;50.876;4.342;2023-04-25T06:07:47;18.30;;;5.30;;
17347;SDS011;8791;50.876;4.342;2023-04-25T06:10:15;13.80;;;3.97;;
17347;SDS011;8791;50.876;4.342;2023-04-25T06:12:42;10.80;;;3.73;;
17347;SDS011;8791;50.876;4.342;2023-04-25T06:15:10;9.10;;;3.40;;
17347;SDS011;8791;50.876;4.342;2023-04-25T06:17:37;14.20;;;3.70;;
17347;SDS011;8791;50.876;4.342;2023-04-25T06:20:05;18.80;;;4.03;;
17347;SDS011;8791;50.876;4.342;2023-04-25T06:22:33;10.53;;;3.83;;
17347;SDS011;8791;50.876;4.342;2023-04-25T06:25:00;11.53;;;3.73;;
17347;SDS011;8791;50.876;4.342;2023-04-25T06:27:29;12.40;;;3.13;;
17347;SDS011;8791;50.876;4.342;2023-04-25T06:29:56;21.57;;;4.10;;
17347;SDS011;8791;50.876;4.342;2023-04-25T06:32:24;21.00;;;4.07;;
17347;SDS011;8791;50.876;4.342;2023-04-25T06:34:52;11.80;;;3.43;;
17347;SDS011;8791;50.876;4.342;2023-04-25T06:37:19;16.57;;;4.07;;
17347;SDS011;8791;50.876;4.342;2023-04-25T06:39:46;11.90;;;4.00;;
17347;SDS011;8791;50.876;4.342;2023-04-25T06:42:13;20.90;;;3.87;;
17347;SDS011;8791;50.876;4.342;2023-04-25T06:44:40;17.53;;;3.93;;
17347;SDS011;8791;50.876;4.342;2023-04-25T06:47:07;14.27;;;4.73;;
17347;SDS011;8791;50.876;4.342;2023-04-25T06:49:36;18.40;;;3.70;;
17347;SDS011;8791;50.876;4.342;2023-04-25T06:52:03;11.60;;;3.53;;
17347;SDS011;8791;50.876;4.342;2023-04-25T06:54:30;13.70;;;3.03;;
17347;SDS011;8791;50.876;4.342;2023-04-25T06:56:58;12.67;;;3.13;;
17347;SDS011;8791;50.876;4.342;2023-04-25T06:59:27;13.20;;;3.30;;
17347;SDS011;8791;50.876;4.342;2023-04-25T07:01:54;14.57;;;3.60;;
17347;SDS011;8791;50.876;4.342;2023-04-25T07:04:22;14.73;;;3.77;;
17347;SDS011;8791;50.876;4.342;2023-04-25T07:06:50;14.30;;;3.70;;
17347;SDS011;8791;50.876;4.342;2023-04-25T07:09:17;18.37;;;4.10;;
17347;SDS011;8791;50.876;4.342;2023-04-25T07:11:44;21.10;;;3.50;;
17347;SDS011;8791;50.876;4.342;2023-04-25T07:14:11;16.27;;;3.50;;
17347;SDS011;8791;50.876;4.342;2023-04-25T07:16:38;12.00;;;3.57;;
17347;SDS011;8791;50.876;4.342;2023-04-25T07:19:05;17.10;;;3.37;;
17347;SDS011;8791;50.876;4.342;2023-04-25T07:21:32;10.40;;;3.20;;
17347;SDS011;8791;50.876;4.342;2023-04-25T07:24:03;20.77;;;3.63;;
17347;SDS011;8791;50.876;4.342;2023-04-25T07:26:30;11.30;;;2.90;;
17347;SDS011;8791;50.876;4.342;2023-04-25T07:28:57;16.17;;;3.20;;
17347;SDS011;8791;50.876;4.342;2023-04-25T07:31:24;16.33;;;3.17;;
17347;SDS011;8791;50.876;4.342;2023-04-25T07:33:51;16.07;;;2.67;;
17347;SDS011;8791;50.876;4.342;2023-04-25T07:36:18;11.97;;;2.90;;
17347;SDS011;8791;50.876;4.342;2023-04-25T07:38:46;8.87;;;3.20;;
17347;SDS011;8791;50.876;4.342;2023-04-25T07:41:15;15.50;;;2.83;;
17347;SDS011;8791;50.876;4.342;2023-04-25T07:43:42;13.13;;;2.90;;
17347;SDS011;8791;50.876;4.342;2023-04-25T07:46:09;14.83;;;3.10;;
17347;SDS011;8791;50.876;4.342;2023-04-25T07:48:36;12.20;;;2.40;;
17347;SDS011;8791;50.876;4.342;2023-04-25T07:51:03;9.03;;;2.30;;
17347;SDS011;8791;50.876;4.342;2023-04-25T07:56:07;13.57;;;2.83;;
17347;SDS011;8791;50.876;4.342;2023-04-25T07:58:35;7.30;;;2.63;;
17347;SDS011;8791;50.876;4.342;2023-04-25T08:01:02;12.07;;;2.43;;
17347;SDS011;8791;50.876;4.342;2023-04-25T08:03:29;4.93;;;2.00;;
17347;SDS011;8791;50.876;4.342;2023-04-25T08:05:56;14.80;;;2.83;;
17347;SDS011;8791;50.876;4.342;2023-04-25T08:08:23;11.57;;;2.70;;
17347;SDS011;8791;50.876;4.342;2023-04-25T08:10:50;8.80;;;2.30;;
17347;SDS011;8791;50.876;4.342;2023-04-25T08:13:17;10.13;;;2.70;;
17347;SDS011;8791;50.876;4.342;2023-04-25T08:15:46;13.83;;;2.93;;
17347;SDS011;8791;50.876;4.342;2023-04-25T08:18:13;14.63;;;2.40;;
17347;SDS011;8791;50.876;4.342;2023-04-25T08:20:40;7.20;;;2.63;;
17347;SDS011;8791;50.876;4.342;2023-04-25T08:23:07;12.10;;;2.70;;
17347;SDS011;8791;50.876;4.342;2023-04-25T08:25:35;8.53;;;2.20;;
17347;SDS011;8791;50.876;4.342;2023-04-25T08:28:02;12.93;;;2.70;;
17347;SDS011;8791;50.876;4.342;2023-04-25T08:30:29;12.13;;;2.87;;
17347;SDS011;8791;50.876;4.342;2023-04-25T08:32:57;7.30;;;2.47;;
17347;SDS011;8791;50.876;4.342;2023-04-25T08:35:24;10.37;;;2.13;;
17347;SDS011;8791;50.876;4.342;2023-04-25T08:37:51;9.27;;;2.07;;
17347;SDS011;8791;50.876;4.342;2023-04-25T08:40:18;8.03;;;2.23;;
17347;SDS011;8791;50.876;4.342;2023-04-25T08:42:51;12.50;;;2.50;;
17347;SDS011;8791;50.876;4.342;2023-04-25T08:45:20;12.97;;;2.37;;
17347;SDS011;8791;50.876;4.342;2023-04-25T08:47:47;17.50;;;2.80;;
17347;SDS011;8791;50.876;4.342;2023-04-25T08:50:19;12.87;;;3.20;;
17347;SDS011;8791;50.876;4.342;2023-04-25T08:52:47;7.63;;;1.90;;
17347;SDS011;8791;50.876;4.342;2023-04-25T08:55:17;9.50;;;2.40;;
17347;SDS011;8791;50.876;4.342;2023-04-25T08:57:46;12.93;;;2.53;;
17347;SDS011;8791;50.876;4.342;2023-04-25T09:00:13;11.70;;;2.37;;
17347;SDS011;8791;50.876;4.342;2023-04-25T09:02:40;9.87;;;2.20;;
17347;SDS011;8791;50.876;4.342;2023-04-25T09:05:09;10.67;;;1.90;;
17347;SDS011;8791;50.876;4.342;2023-04-25T09:07:39;15.27;;;2.53;;
17347;SDS011;8791;50.876;4.342;2023-04-25T09:10:07;12.83;;;2.50;;
17347;SDS011;8791;50.876;4.342;2023-04-25T09:12:35;7.53;;;2.27;;
17347;SDS011;8791;50.876;4.342;2023-04-25T09:15:03;10.13;;;2.37;;
17347;SDS011;8791;50.876;4.342;2023-04-25T09:17:31;7.73;;;2.03;;
17347;SDS011;8791;50.876;4.342;2023-04-25T09:20:05;10.07;;;2.43;;
17347;SDS011;8791;50.876;4.342;2023-04-25T09:22:34;11.67;;;1.93;;
17347;SDS011;8791;50.876;4.342;2023-04-25T09:25:03;8.40;;;2.17;;
17347;SDS011;8791;50.876;4.342;2023-04-25T09:27:34;9.33;;;2.20;;
17347;SDS011;8791;50.876;4.342;2023-04-25T09:30:01;12.90;;;2.20;;
17347;SDS011;8791;50.876;4.342;2023-04-25T09:32:28;8.67;;;2.00;;
17347;SDS011;8791;50.876;4.342;2023-04-25T09:34:56;8.37;;;1.90;;
17347;SDS011;8791;50.876;4.342;2023-04-25T09:37:24;7.13;;;1.60;;
17347;SDS011;8791;50.876;4.342;2023-04-25T09:39:53;10.43;;;2.20;;
17347;SDS011;8791;50.876;4.342;2023-04-25T09:42:23;7.83;;;2.13;;
17347;SDS011;8791;50.876;4.342;2023-04-25T09:44:52;8.73;;;2.37;;
17347;SDS011;8791;50.876;4.342;2023-04-25T09:47:20;10.03;;;2.00;;
17347;SDS011;8791;50.876;4.342;2023-04-25T09:49:48;5.60;;;1.83;;
17347;SDS011;8791;50.876;4.342;2023-04-25T09:52:18;8.57;;;1.60;;
17347;SDS011;8791;50.876;4.342;2023-04-25T09:54:46;6.77;;;1.50;;
17347;SDS011;8791;50.876;4.342;2023-04-25T09:57:14;6.57;;;1.50;;
17347;SDS011;8791;50.876;4.342;2023-04-25T09:59:44;6.77;;;1.60;;
17347;SDS011;8791;50.876;4.342;2023-04-25T10:02:13;10.20;;;1.87;;
17347;SDS011;8791;50.876;4.342;2023-04-25T10:04:41;6.77;;;1.70;;
17347;SDS011;8791;50.876;4.342;2023-04-25T10:07:11;6.27;;;1.83;;
17347;SDS011;8791;50.876;4.342;2023-04-25T10:09:38;9.40;;;1.80;;
17347;SDS011;8791;50.876;4.342;2023-04-25T10:12:06;3.13;;;1.30;;
17347;SDS011;8791;50.876;4.342;2023-04-25T10:14:33;6.70;;;1.27;;
17347;SDS011;8791;50.876;4.342;2023-04-25T10:17:02;7.23;;;1.43;;
17347;SDS011;8791;50.876;4.342;2023-04-25T10:19:29;8.70;;;1.27;;
17347;SDS011;8791;50.876;4.342;2023-04-25T10:22:03;5.93;;;1.30;;
17347;SDS011;8791;50.876;4.342;2023-04-25T10:24:33;3.77;;;1.30;;
17347;SDS011;8791;50.876;4.342;2023-04-25T10:27:01;6.77;;;1.70;;
17347;SDS011;8791;50.876;4.342;2023-04-25T10:29:29;4.27;;;1.40;;
17347;SDS011;8791;50.876;4.342;2023-04-25T10:31:55;2.87;;;1.30;;
17347;SDS011;8791;50.876;4.342;2023-04-25T10:34:37;4.20;;;1.43;;
17347;SDS011;8791;50.876;4.342;2023-04-25T10:37:05;5.40;;;1.50;;
17347;SDS011;8791;50.876;4.342;2023-04-25T10:39:35;5.00;;;1.30;;
17347;SDS011;8791;50.876;4.342;2023-04-25T10:42:03;6.63;;;1.43;;
17347;SDS011;8791;50.876;4.342;2023-04-25T10:44:31;7.40;;;1.70;;
17347;SDS011;8791;50.876;4.342;2023-04-25T10:46:58;6.20;;;1.20;;
17347;SDS011;8791;50.876;4.342;2023-04-25T10:49:31;8.00;;;1.43;;
17347;SDS011;8791;50.876;4.342;2023-04-25T10:52:16;4.50;;;1.43;;
17347;SDS011;8791;50.876;4.342;2023-04-25T10:54:47;5.40;;;1.43;;
17347;SDS011;8791;50.876;4.342;2023-04-25T10:57:31;11.20;;;1.70;;
17347;SDS011;8791;50.876;4.342;2023-04-25T11:00:05;12.73;;;2.33;;
17347;SDS011;8791;50.876;4.342;2023-04-25T11:02:38;7.40;;;2.23;;
17347;SDS011;8791;50.876;4.342;2023-04-25T11:05:11;15.27;;;2.00;;
17347;SDS011;8791;50.876;4.342;2023-04-25T11:07:49;11.70;;;1.43;;
17347;SDS011;8791;50.876;4.342;2023-04-25T11:10:17;7.10;;;2.13;;
17347;SDS011;8791;50.876;4.342;2023-04-25T11:12:45;5.47;;;1.40;;
17347;SDS011;8791;50.876;4.342;2023-04-25T11:15:12;8.80;;;1.47;;
17347;SDS011;8791;50.876;4.342;2023-04-25T11:17:39;4.17;;;1.67;;
17347;SDS011;8791;50.876;4.342;2023-04-25T11:20:08;10.67;;;2.00;;
17347;SDS011;8791;50.876;4.342;2023-04-25T11:22:38;6.00;;;1.53;;
17347;SDS011;8791;50.876;4.342;2023-04-25T11:25:07;9.17;;;1.50;;
17347;SDS011;8791;50.876;4.342;2023-04-25T11:27:37;3.80;;;1.40;;
17347;SDS011;8791;50.876;4.342;2023-04-25T11:30:12;7.07;;;1.73;;
17347;SDS011;8791;50.876;4.342;2023-04-25T11:32:41;2.77;;;1.27;;
17347;SDS011;8791;50.876;4.342;2023-04-25T11:35:08;7.27;;;1.43;;
17347;SDS011;8791;50.876;4.342;2023-04-25T11:37:36;7.30;;;1.20;;
17347;SDS011;8791;50.876;4.342;2023-04-25T11:40:06;4.47;;;1.30;;
17347;SDS011;8791;50.876;4.342;2023-04-25T11:42:36;5.10;;;1.40;;
17347;SDS011;8791;50.876;4.342;2023-04-25T11:45:05;9.83;;;1.67;;
17347;SDS011;8791;50.876;4.342;2023-04-25T11:47:33;3.17;;;1.60;;
17347;SDS011;8791;50.876;4.342;2023-04-25T11:50:00;3.97;;;1.10;;
17347;SDS011;8791;50.876;4.342;2023-04-25T11:52:35;4.33;;;1.67;;
17347;SDS011;8791;50.876;4.342;2023-04-25T11:55:05;7.37;;;1.33;;
17347;SDS011;8791;50.876;4.342;2023-04-25T11:57:33;4.07;;;1.43;;
17347;SDS011;8791;50.876;4.342;2023-04-25T12:00:07;3.77;;;1.47;;
17347;SDS011;8791;50.876;4.342;2023-04-25T12:02:37;4.23;;;1.50;;
17347;SDS011;8791;50.876;4.342;2023-04-25T12:05:06;7.20;;;1.60;;
17347;SDS011;8791;50.876;4.342;2023-04-25T12:07:34;6.50;;;1.80;;
17347;SDS011;8791;50.876;4.342;2023-04-25T12:10:04;3.23;;;1.00;;
17347;SDS011;8791;50.876;4.342;2023-04-25T12:12:34;2.73;;;1.20;;
17347;SDS011;8791;50.876;4.342;2023-04-25T12:15:08;4.13;;;1.40;;
17347;SDS011;8791;50.876;4.342;2023-04-25T12:17:40;6.13;;;1.47;;
17347;SDS011;8791;50.876;4.342;2023-04-25T12:20:09;3.80;;;1.20;;
17347;SDS011;8791;50.876;4.342;2023-04-25T12:22:37;2.40;;;0.97;;
17347;SDS011;8791;50.876;4.342;2023-04-25T12:25:04;3.27;;;1.50;;
17347;SDS011;8791;50.876;4.342;2023-04-25T12:27:35;4.17;;;0.90;;
17347;SDS011;8791;50.876;4.342;2023-04-25T12:30:02;11.27;;;1.17;;
17347;SDS011;8791;50.876;4.342;2023-04-25T12:32:30;3.83;;;0.90;;
17347;SDS011;8791;50.876;4.342;2023-04-25T12:34:57;4.77;;;1.10;;
17347;SDS011;8791;50.876;4.342;2023-04-25T12:37:23;3.00;;;1.10;;
17347;SDS011;8791;50.876;4.342;2023-04-25T12:39:51;2.87;;;0.90;;
17347;SDS011;8791;50.876;4.342;2023-04-25T12:42:18;7.47;;;1.00;;
17347;SDS011;8791;50.876;4.342;2023-04-25T12:44:46;5.03;;;1.13;;
17347;SDS011;8791;50.876;4.342;2023-04-25T12:47:13;4.73;;;1.30;;
17347;SDS011;8791;50.876;4.342;2023-04-25T12:49:40;2.60;;;0.90;;
17347;SDS011;8791;50.876;4.342;2023-04-25T12:52:07;5.57;;;1.40;;
17347;SDS011;8791;50.876;4.342;2023-04-25T12:54:34;7.97;;;1.40;;
17347;SDS011;8791;50.876;4.342;2023-04-25T12:57:01;4.43;;;1.63;;
17347;SDS011;8791;50.876;4.342;2023-04-25T12:59:28;6.77;;;1.33;;
17347;SDS011;8791;50.876;4.342;2023-04-25T13:01:56;1.60;;;1.00;;
17347;SDS011;8791;50.876;4.342;2023-04-25T13:04:23;11.73;;;1.30;;
17347;SDS011;8791;50.876;4.342;2023-04-25T13:06:50;5.97;;;1.47;;
17347;SDS011;8791;50.876;4.342;2023-04-25T13:09:17;9.63;;;1.90;;
17347;SDS011;8791;50.876;4.342;2023-04-25T13:11:44;7.87;;;1.50;;
17347;SDS011;8791;50.876;4.342;2023-04-25T13:14:11;7.37;;;1.50;;
17347;SDS011;8791;50.876;4.342;2023-04-25T13:16:38;3.80;;;1.27;;
17347;SDS011;8791;50.876;4.342;2023-04-25T13:19:06;6.73;;;1.00;;
17347;SDS011;8791;50.876;4.342;2023-04-25T13:21:36;6.63;;;1.40;;
17347;SDS011;8791;50.876;4.342;2023-04-25T13:24:03;6.47;;;1.10;;
17347;SDS011;8791;50.876;4.342;2023-04-25T13:26:30;2.97;;;1.40;;
17347;SDS011;8791;50.876;4.342;2023-04-25T13:28:57;5.07;;;1.23;;
17347;SDS011;8791;50.876;4.342;2023-04-25T13:31:25;7.30;;;1.40;;
17347;SDS011;8791;50.876;4.342;2023-04-25T13:33:52;4.80;;;1.10;;
17347;SDS011;8791;50.876;4.342;2023-04-25T13:36:23;2.30;;;1.07;;
17347;SDS011;8791;50.876;4.342;2023-04-25T13:38:50;3.40;;;0.93;;
17347;SDS011;8791;50.876;4.342;2023-04-25T13:41:17;1.90;;;0.97;;
17347;SDS011;8791;50.876;4.342;2023-04-25T13:43:45;3.47;;;1.00;;
17347;SDS011;8791;50.876;4.342;2023-04-25T13:46:13;4.43;;;1.30;;
17347;SDS011;8791;50.876;4.342;2023-04-25T13:48:41;6.43;;;1.33;;
17347;SDS011;8791;50.876;4.342;2023-04-25T13:51:11;4.90;;;1.20;;
17347;SDS011;8791;50.876;4.342;2023-04-25T13:53:41;4.47;;;1.37;;
17347;SDS011;8791;50.876;4.342;2023-04-25T13:56:08;6.83;;;1.10;;
17347;SDS011;8791;50.876;4.342;2023-04-25T13:58:36;3.40;;;1.10;;
17347;SDS011;8791;50.876;4.342;2023-04-25T14:01:03;7.27;;;1.50;;
17347;SDS011;8791;50.876;4.342;2023-04-25T14:03:30;7.90;;;1.20;;
17347;SDS011;8791;50.876;4.342;2023-04-25T14:05:57;4.27;;;1.17;;
17347;SDS011;8791;50.876;4.342;2023-04-25T14:08:24;2.20;;;1.07;;
17347;SDS011;8791;50.876;4.342;2023-04-25T14:10:52;10.63;;;1.33;;
17347;SDS011;8791;50.876;4.342;2023-04-25T14:13:19;2.90;;;1.30;;
17347;SDS011;8791;50.876;4.342;2023-04-25T14:15:46;3.57;;;1.07;;
17347;SDS011;8791;50.876;4.342;2023-04-25T14:18:13;3.80;;;1.53;;
17347;SDS011;8791;50.876;4.342;2023-04-25T14:20:40;4.77;;;1.23;;
17347;SDS011;8791;50.876;4.342;2023-04-25T14:23:07;1.80;;;1.03;;
17347;SDS011;8791;50.876;4.342;2023-04-25T14:25:34;2.87;;;1.13;;
17347;SDS011;8791;50.876;4.342;2023-04-25T14:28:03;3.87;;;1.20;;
17347;SDS011;8791;50.876;4.342;2023-04-25T14:30:30;3.10;;;1.20;;
17347;SDS011;8791;50.876;4.342;2023-04-25T14:32:57;4.03;;;1.43;;
17347;SDS011;8791;50.876;4.342;2023-04-25T14:35:23;9.20;;;1.30;;
17347;SDS011;8791;50.876;4.342;2023-04-25T14:37:50;5.03;;;1.53;;
17347;SDS011;8791;50.876;4.342;2023-04-25T14:40:18;6.87;;;1.10;;
17347;SDS011;8791;50.876;4.342;2023-04-25T14:42:48;9.60;;;1.77;;
17347;SDS011;8791;50.876;4.342;2023-04-25T14:45:16;3.67;;;1.40;;
17347;SDS011;8791;50.876;4.342;2023-04-25T14:47:43;11.40;;;1.23;;
17347;SDS011;8791;50.876;4.342;2023-04-25T14:50:10;4.67;;;1.20;;
17347;SDS011;8791;50.876;4.342;2023-04-25T14:52:37;3.77;;;1.20;;
17347;SDS011;8791;50.876;4.342;2023-04-25T14:55:04;4.87;;;1.20;;
17347;SDS011;8791;50.876;4.342;2023-04-25T14:57:32;6.43;;;1.10;;
17347;SDS011;8791;50.876;4.342;2023-04-25T14:59:59;6.87;;;1.50;;